Time;durP1;ratioP1;P1;durP2;ratioP2;P2;SDS_P1;SDS_P2;PMS_P1;PMS_P2;Temp;Humidity;BMP_temperature;BMP_pressure;BME280_temperature;BME280_humidity;BME280_pressure;Samples;Min_cycle;Max_cycle;Signal;HPM_P1;HPM_P2
2022/04/06 17:15:53;;;;;;;9.30;7.55;;;9.30;99.90;;;;;;6303134;22;20042;-89
2022/04/06 17:18:19;;;;;;;10.93;6.68;;;9.30;99.90;;;;;;6215495;22;20128;-93
2022/04/06 17:20:45;;;;;;;9.40;7.78;;;9.30;99.90;;;;;;6247028;23;20042;-94
2022/04/06 17:23:11;;;;;;;10.32;7.78;;;9.30;99.90;;;;;;6248532;22;20012;-91
2022/04/06 17:25:38;;;;;;;8.88;7.60;;;9.30;99.90;;;;;;6246237;23;20016;-91
2022/04/06 17:28:04;;;;;;;9.02;7.18;;;9.30;99.90;;;;;;6244098;23;20133;-90
2022/04/06 17:30:31;;;;;;;10.60;7.63;;;9.30;99.90;;;;;;6248202;22;20675;-92
2022/04/06 17:32:57;;;;;;;9.32;7.55;;;9.30;99.90;;;;;;6249043;23;20024;-89
2022/04/06 17:35:23;;;;;;;8.32;7.25;;;9.30;99.90;;;;;;6221860;23;20055;-93
2022/04/06 17:37:49;;;;;;;11.95;7.75;;;9.30;99.90;;;;;;6246793;22;20012;-91
2022/04/06 17:40:17;;;;;;;9.27;7.72;;;9.30;99.90;;;;;;6218866;23;20043;-90
2022/04/06 17:42:43;;;;;;;9.18;7.78;;;9.30;99.90;;;;;;6246841;22;20012;-90
2022/04/06 17:45:10;;;;;;;10.60;8.15;;;9.30;99.90;;;;;;6247063;23;20461;-92
2022/04/06 17:47:36;;;;;;;9.27;8.10;;;9.30;99.90;;;;;;6242976;23;20035;-91
2022/04/06 17:50:02;;;;;;;11.00;8.15;;;9.30;99.90;;;;;;6277514;22;20441;-91
2022/04/06 17:52:34;;;;;;;9.90;8.02;;;9.30;99.90;;;;;;6317503;22;20077;-91
2022/04/06 17:55:00;;;;;;;14.40;9.30;;;9.30;99.90;;;;;;6317175;22;19999;-93
2022/04/06 17:57:32;;;;;;;12.20;9.20;;;9.20;99.90;;;;;;6313609;22;20582;-92
2022/04/06 17:59:58;;;;;;;12.55;8.45;;;9.20;99.90;;;;;;6313152;22;20019;-89
2022/04/06 18:02:24;;;;;;;10.20;7.80;;;9.20;99.90;;;;;;6312864;22;20046;-90
2022/04/06 18:04:50;;;;;;;12.38;8.30;;;9.20;99.90;;;;;;6315893;22;20006;-94
2022/04/06 18:07:16;;;;;;;9.75;8.23;;;9.20;99.90;;;;;;6319249;22;19998;-94
2022/04/06 18:09:43;;;;;;;11.48;9.82;;;9.10;99.90;;;;;;6316625;22;20018;-93
2022/04/06 18:15:08;;;;;;;13.65;9.55;;;9.10;99.90;;;;;;6345118;22;20014;-96
2022/04/06 18:17:34;;;;;;;12.55;9.50;;;9.20;99.90;;;;;;6323661;22;20019;-94
2022/04/06 18:20:01;;;;;;;11.93;9.38;;;9.10;99.90;;;;;;6339789;22;20094;-93
2022/04/06 18:22:27;;;;;;;12.93;9.68;;;9.10;99.90;;;;;;6338131;22;20448;-90
2022/04/06 18:24:52;;;;;;;12.00;9.57;;;9.10;99.90;;;;;;6339264;22;20067;-92
2022/04/06 18:27:18;;;;;;;12.45;9.90;;;9.10;99.90;;;;;;6339312;22;20043;-90
2022/04/06 18:29:44;;;;;;;14.13;10.43;;;9.10;99.90;;;;;;6338768;22;20015;-91
2022/04/06 18:32:09;;;;;;;11.32;9.70;;;9.10;99.90;;;;;;6362421;22;20006;-91
2022/04/06 18:34:37;;;;;;;13.07;10.00;;;9.20;99.90;;;;;;6337378;22;20006;-90
2022/04/06 18:37:03;;;;;;;13.57;9.60;;;9.10;99.90;;;;;;6338023;22;20027;-93
2022/04/06 18:39:29;;;;;;;13.45;9.88;;;9.10;99.90;;;;;;6339103;22;20036;-91
2022/04/06 18:41:54;;;;;;;10.63;9.43;;;9.10;99.90;;;;;;6338031;22;20003;-90
2022/04/06 18:44:22;;;;;;;11.18;9.73;;;9.10;99.90;;;;;;6365192;22;20015;-92
2022/04/06 18:46:47;;;;;;;13.98;9.65;;;9.10;99.90;;;;;;6336074;22;20053;-89
2022/04/06 18:49:14;;;;;;;14.68;9.93;;;9.10;99.90;;;;;;6337970;22;19999;-88
2022/04/06 18:51:40;;;;;;;12.15;9.20;;;9.20;99.90;;;;;;6335515;22;19995;-88
2022/04/06 18:54:06;;;;;;;15.38;10.10;;;9.20;99.90;;;;;;6336441;22;20003;-88
2022/04/06 18:56:32;;;;;;;11.23;9.65;;;9.20;99.90;;;;;;6338655;22;20464;-90
2022/04/06 18:59:00;;;;;;;13.20;9.95;;;9.20;99.90;;;;;;6336941;22;20007;-87
2022/04/06 19:01:25;;;;;;;15.32;8.90;;;9.10;99.90;;;;;;6335887;22;20014;-91
2022/04/06 19:03:56;;;;;;;14.77;10.05;;;9.00;99.90;;;;;;6368336;22;20021;-87
2022/04/06 19:06:22;;;;;;;10.23;8.48;;;9.00;99.90;;;;;;6373242;22;20003;-92
2022/04/06 19:08:50;;;;;;;12.30;9.05;;;9.00;99.90;;;;;;6370350;22;20017;-90
2022/04/06 19:11:16;;;;;;;11.00;9.27;;;9.00;99.90;;;;;;6340557;22;20010;-92
2022/04/06 19:13:46;;;;;;;10.93;8.68;;;9.00;99.90;;;;;;6342825;22;20463;-91
2022/04/06 19:16:13;;;;;;;11.95;9.10;;;9.00;99.90;;;;;;6341998;22;20007;-88
2022/04/06 19:18:38;;;;;;;11.70;9.75;;;9.10;99.90;;;;;;6315026;22;20087;-89
2022/04/06 19:21:04;;;;;;;10.82;9.02;;;9.00;99.90;;;;;;6344450;22;20049;-87
2022/04/06 19:23:31;;;;;;;13.73;9.32;;;9.10;99.90;;;;;;6345484;22;20052;-88
2022/04/06 19:26:06;;;;;;;14.95;8.90;;;9.10;99.90;;;;;;6345102;22;19995;-91
2022/04/06 19:28:33;;;;;;;13.27;9.45;;;9.10;99.90;;;;;;6367274;22;20322;-91
2022/04/06 19:30:59;;;;;;;12.55;10.07;;;9.20;99.90;;;;;;6344327;22;19995;-91
2022/04/06 19:33:25;;;;;;;13.55;10.45;;;9.20;99.90;;;;;;6364033;22;20009;-90
2022/04/06 19:35:50;;;;;;;12.73;9.18;;;9.20;99.90;;;;;;6338069;22;20320;-91
2022/04/06 19:38:16;;;;;;;11.93;9.20;;;9.20;99.90;;;;;;6338122;22;20003;-92
2022/04/06 19:40:43;;;;;;;12.18;10.35;;;9.20;99.90;;;;;;6342473;22;20080;-90
2022/04/06 19:43:09;;;;;;;12.82;10.00;;;9.30;99.90;;;;;;6341344;22;20006;-90
2022/04/06 19:45:40;;;;;;;13.13;10.57;;;9.30;99.90;;;;;;6362473;22;20020;-88
2022/04/06 19:48:07;;;;;;;13.07;9.68;;;9.40;99.90;;;;;;6311977;22;20022;-92
2022/04/06 19:50:32;;;;;;;13.98;10.35;;;9.40;99.90;;;;;;6308844;22;20044;-88
2022/04/06 19:52:58;;;;;;;10.70;8.93;;;9.40;99.90;;;;;;6309477;22;20084;-90
2022/04/06 19:55:24;;;;;;;11.15;9.18;;;9.40;99.90;;;;;;6312125;22;20003;-90
2022/04/06 19:57:49;;;;;;;10.75;9.25;;;9.40;99.90;;;;;;6337662;22;20003;-91
2022/04/06 20:00:15;;;;;;;11.27;9.27;;;9.50;99.90;;;;;;6311152;22;20007;-88
2022/04/06 20:02:41;;;;;;;10.00;8.40;;;9.50;99.90;;;;;;6312642;22;20002;-93
2022/04/06 20:05:12;;;;;;;10.23;8.32;;;9.50;99.90;;;;;;6318372;22;20018;-93
2022/04/06 20:07:38;;;;;;;10.50;8.02;;;9.50;99.90;;;;;;6313876;22;20009;-93
2022/04/06 20:10:06;;;;;;;9.27;8.25;;;9.50;99.90;;;;;;6315481;22;20015;-91
2022/04/06 20:12:32;;;;;;;9.82;8.10;;;9.50;99.90;;;;;;6313283;22;20010;-90
2022/04/06 20:14:59;;;;;;;9.85;7.80;;;9.40;99.90;;;;;;6311950;22;20329;-90
2022/04/06 20:17:25;;;;;;;8.70;7.78;;;9.40;99.90;;;;;;6311537;22;20101;-89
2022/04/06 20:19:51;;;;;;;8.57;7.03;;;9.40;99.90;;;;;;6313457;22;20049;-91
2022/04/06 20:22:16;;;;;;;10.02;8.43;;;9.40;99.90;;;;;;6312980;22;20441;-88
2022/04/06 20:24:43;;;;;;;10.20;8.32;;;9.40;99.90;;;;;;6312391;22;20018;-89
2022/04/06 20:27:10;;;;;;;10.70;9.55;;;9.40;99.90;;;;;;6310791;22;20007;-90
2022/04/06 20:29:36;;;;;;;10.82;9.45;;;9.40;99.90;;;;;;6312795;22;20010;-90
2022/04/06 20:32:02;;;;;;;10.65;9.55;;;9.40;99.90;;;;;;6337643;22;20337;-90
2022/04/06 20:34:29;;;;;;;11.70;10.50;;;9.40;99.90;;;;;;6340785;22;20007;-90
2022/04/06 20:36:57;;;;;;;12.73;10.60;;;9.50;99.90;;;;;;6319987;22;19998;-93
2022/04/06 20:39:30;;;;;;;10.60;9.60;;;9.50;99.90;;;;;;6317480;22;20027;-91
2022/04/06 20:41:56;;;;;;;12.75;10.52;;;9.50;99.90;;;;;;6343601;22;20002;-90
2022/04/06 20:44:24;;;;;;;11.45;9.93;;;9.50;99.90;;;;;;6341949;22;20010;-93
2022/04/06 20:46:51;;;;;;;11.27;10.13;;;9.40;99.90;;;;;;6317082;22;20382;-94
2022/04/06 20:49:21;;;;;;;9.98;8.98;;;9.40;99.90;;;;;;6318285;22;20086;-92
2022/04/06 20:51:50;;;;;;;10.57;9.48;;;9.40;99.90;;;;;;6318432;22;19995;-93
2022/04/06 20:54:15;;;;;;;11.65;9.57;;;9.40;99.90;;;;;;6318496;22;20015;-91
2022/04/06 20:56:41;;;;;;;10.63;9.60;;;9.40;99.90;;;;;;6318513;22;20413;-91
2022/04/06 20:59:10;;;;;;;11.18;9.32;;;9.40;99.90;;;;;;6320839;22;20013;-94
2022/04/06 21:01:36;;;;;;;10.57;8.93;;;9.40;99.90;;;;;;6316949;22;20003;-94
2022/04/06 21:04:01;;;;;;;10.48;9.13;;;9.50;99.90;;;;;;6316115;22;20011;-93
2022/04/06 21:06:27;;;;;;;10.82;8.57;;;9.40;99.90;;;;;;6330068;22;19995;-91
2022/04/06 21:08:57;;;;;;;9.38;8.32;;;9.40;99.90;;;;;;6330791;22;20062;-92
2022/04/06 21:11:22;;;;;;;8.82;7.93;;;9.40;99.90;;;;;;6335670;22;19995;-94
2022/04/06 21:13:50;;;;;;;8.90;7.68;;;9.40;99.90;;;;;;6308287;22;20018;-93
2022/04/06 21:16:16;;;;;;;8.15;7.35;;;9.30;99.90;;;;;;6326093;22;20366;-93
2022/04/06 21:18:44;;;;;;;8.55;7.63;;;9.30;99.90;;;;;;6325576;22;20011;-92
2022/04/06 21:21:11;;;;;;;8.38;7.57;;;9.30;99.90;;;;;;6351444;22;19999;-93
2022/04/06 21:23:39;;;;;;;8.25;7.43;;;9.30;99.90;;;;;;6325639;22;20015;-93
2022/04/06 21:26:07;;;;;;;10.13;7.28;;;9.40;99.90;;;;;;6321526;22;20003;-94
2022/04/06 21:28:33;;;;;;;7.25;6.55;;;9.40;99.90;;;;;;6353528;22;20087;-92
2022/04/06 21:30:59;;;;;;;8.60;6.85;;;9.40;99.90;;;;;;6321152;22;20003;-93
2022/04/06 21:33:24;;;;;;;9.60;6.38;;;9.40;99.90;;;;;;6317207;22;20062;-93
2022/04/06 21:35:54;;;;;;;8.18;6.38;;;9.50;99.90;;;;;;6324915;22;20056;-94
2022/04/06 21:38:20;;;;;;;10.43;6.78;;;9.50;99.90;;;;;;6350082;22;20027;-93
2022/04/06 21:40:46;;;;;;;8.05;6.40;;;9.50;99.90;;;;;;6323698;22;20006;-92
2022/04/06 21:43:14;;;;;;;6.80;5.80;;;9.50;99.90;;;;;;6296647;22;20006;-93
2022/04/06 21:45:43;;;;;;;7.05;5.75;;;9.60;99.90;;;;;;6325706;22;20007;-92
2022/04/06 21:48:12;;;;;;;8.18;5.28;;;9.60;99.90;;;;;;6324522;22;20457;-93
2022/04/06 21:50:42;;;;;;;7.97;5.50;;;9.60;99.90;;;;;;6351334;22;20007;-94
2022/04/06 21:53:11;;;;;;;7.65;5.70;;;9.60;99.90;;;;;;6303032;22;20003;-90
2022/04/06 21:55:39;;;;;;;8.02;5.45;;;9.70;99.90;;;;;;6323073;22;20042;-92
2022/04/06 21:58:08;;;;;;;5.82;5.13;;;9.70;99.90;;;;;;6353287;22;20007;-93
2022/04/06 22:00:36;;;;;;;6.35;4.70;;;9.70;99.90;;;;;;6327865;22;20007;-92
2022/04/06 22:03:02;;;;;;;7.40;5.93;;;9.70;99.90;;;;;;6320895;22;19998;-94
2022/04/06 22:05:29;;;;;;;10.70;6.18;;;9.70;99.90;;;;;;6318363;22;20433;-92
2022/04/06 22:07:55;;;;;;;8.13;6.65;;;9.70;99.90;;;;;;6319075;22;20022;-95
2022/04/06 22:10:21;;;;;;;8.40;6.22;;;9.70;99.90;;;;;;6317581;22;20085;-92
2022/04/06 22:12:48;;;;;;;7.45;5.95;;;9.60;99.90;;;;;;6315432;22;20026;-94
2022/04/06 22:15:17;;;;;;;8.88;6.60;;;9.70;99.90;;;;;;6316307;22;20371;-95
2022/04/06 22:17:43;;;;;;;8.82;6.85;;;9.60;99.90;;;;;;6323196;22;20018;-94
2022/04/06 22:20:09;;;;;;;7.97;6.25;;;9.70;99.90;;;;;;6320902;22;20093;-94
2022/04/06 22:22:35;;;;;;;7.57;6.07;;;9.70;99.90;;;;;;6316753;22;20030;-93
2022/04/06 22:25:01;;;;;;;8.77;5.88;;;9.70;99.90;;;;;;6316548;22;20119;-94
2022/04/06 22:27:26;;;;;;;8.32;5.80;;;9.70;99.90;;;;;;6318801;22;20517;-92
2022/04/06 22:29:52;;;;;;;8.30;5.90;;;9.70;99.90;;;;;;6321390;22;20011;-92
2022/04/06 22:32:22;;;;;;;9.93;6.82;;;9.70;99.90;;;;;;6315921;22;20425;-92
2022/04/06 22:34:48;;;;;;;8.13;6.60;;;9.70;99.90;;;;;;6315530;22;20003;-93
2022/04/06 22:37:14;;;;;;;7.53;6.70;;;9.70;99.90;;;;;;6318297;22;20006;-92
2022/04/06 22:39:40;;;;;;;9.50;6.22;;;9.80;99.90;;;;;;6314618;22;20006;-92
2022/04/06 22:42:05;;;;;;;7.60;6.35;;;9.80;99.90;;;;;;6315400;22;19999;-93
2022/04/06 22:44:31;;;;;;;7.55;6.20;;;9.80;99.90;;;;;;6315531;22;20010;-92
2022/04/06 22:46:57;;;;;;;7.82;6.45;;;9.80;99.90;;;;;;6315006;22;20035;-93
2022/04/06 22:49:22;;;;;;;8.73;6.55;;;9.80;99.90;;;;;;6315660;22;20030;-93
2022/04/06 22:51:48;;;;;;;8.05;6.63;;;9.70;99.90;;;;;;6316080;22;20298;-94
2022/04/06 22:54:14;;;;;;;7.75;6.18;;;9.80;99.90;;;;;;6318113;22;20464;-92
2022/04/06 22:56:40;;;;;;;8.25;6.20;;;9.80;99.90;;;;;;6315307;22;19994;-94
2022/04/06 22:59:06;;;;;;;8.23;6.60;;;9.80;99.90;;;;;;6316738;22;20033;-95
2022/04/06 23:01:31;;;;;;;7.32;6.20;;;9.80;99.90;;;;;;6314586;22;20002;-93
2022/04/06 23:03:57;;;;;;;7.45;6.45;;;9.80;99.90;;;;;;6314446;22;20022;-94
2022/04/06 23:06:23;;;;;;;8.18;6.50;;;9.80;99.90;;;;;;6314013;22;20010;-91
2022/04/06 23:08:50;;;;;;;7.78;6.85;;;9.80;99.90;;;;;;6314444;22;20014;-92
2022/04/06 23:11:17;;;;;;;7.72;6.70;;;9.80;99.90;;;;;;6313958;22;20023;-92
2022/04/06 23:13:43;;;;;;;8.05;6.38;;;9.80;99.90;;;;;;6314377;22;20014;-93
2022/04/06 23:16:09;;;;;;;9.13;6.70;;;9.80;99.90;;;;;;6314283;22;20007;-93
2022/04/06 23:18:34;;;;;;;7.05;6.35;;;9.80;99.90;;;;;;6314881;22;20070;-94
2022/04/06 23:21:01;;;;;;;7.90;6.28;;;9.80;99.90;;;;;;6314047;22;20453;-94
2022/04/06 23:23:28;;;;;;;8.40;6.50;;;9.90;99.90;;;;;;6316159;22;20066;-92
2022/04/06 23:25:53;;;;;;;7.80;6.07;;;9.90;99.90;;;;;;6316827;22;20007;-92
2022/04/06 23:28:21;;;;;;;8.80;5.68;;;9.80;99.90;;;;;;6316249;22;20455;-92
2022/04/06 23:30:48;;;;;;;7.15;6.10;;;9.80;99.90;;;;;;6318618;22;20038;-91
2022/04/06 23:33:15;;;;;;;6.53;5.57;;;9.90;99.90;;;;;;6314830;22;20030;-93
2022/04/06 23:35:41;;;;;;;7.53;5.65;;;9.80;99.90;;;;;;6315237;22;20010;-92
2022/04/06 23:38:07;;;;;;;9.25;6.13;;;9.80;99.90;;;;;;6314642;22;20421;-93
2022/04/06 23:40:33;;;;;;;7.38;5.25;;;9.80;99.90;;;;;;6314998;22;20026;-93
2022/04/06 23:42:59;;;;;;;9.93;5.85;;;9.80;99.90;;;;;;6315998;22;20106;-93
2022/04/06 23:45:26;;;;;;;8.68;5.68;;;9.80;99.90;;;;;;6314789;22;20445;-93
2022/04/06 23:47:51;;;;;;;6.93;5.70;;;9.80;99.90;;;;;;6314585;22;20011;-94
2022/04/06 23:50:18;;;;;;;7.10;5.53;;;9.80;99.90;;;;;;6321183;22;20003;-92
2022/04/06 23:52:46;;;;;;;6.97;5.38;;;9.70;99.90;;;;;;6323107;22;19999;-92
2022/04/06 23:55:12;;;;;;;7.95;6.00;;;9.80;99.90;;;;;;6314872;22;20087;-93
2022/04/06 23:57:38;;;;;;;7.78;5.82;;;9.70;99.90;;;;;;6319588;22;20093;-92
